Time;durP1;ratioP1;P1;durP2;ratioP2;P2;SDS_P1;SDS_P2;PMS_P1;PMS_P2;Temp;Humidity;BMP_temperature;BMP_pressure;BME280_temperature;BME280_humidity;BME280_pressure;Samples;Min_cycle;Max_cycle;Signal;HPM_P1;HPM_P2
2021/01/20 00:01:26;;;;;;;11.07;10.37;;;2.50;99.90;;;;;;6097477;23;20472;-77
2021/01/20 00:03:52;;;;;;;10.80;10.10;;;2.50;99.90;;;;;;6099287;23;20900;-77
2021/01/20 00:06:18;;;;;;;11.60;10.80;;;2.50;99.90;;;;;;6097466;23;20419;-77
2021/01/20 00:08:44;;;;;;;11.80;10.90;;;2.50;99.90;;;;;;6096720;23;20446;-77
2021/01/20 00:11:11;;;;;;;11.30;10.50;;;2.50;99.90;;;;;;6099128;23;20746;-77
2021/01/20 00:13:37;;;;;;;11.10;10.27;;;2.50;99.90;;;;;;6097834;23;20409;-77
2021/01/20 00:16:04;;;;;;;11.03;10.33;;;2.50;99.90;;;;;;6099588;23;20404;-77
2021/01/20 00:18:30;;;;;;;11.00;10.33;;;2.60;99.90;;;;;;6098598;23;20415;-77
2021/01/20 00:20:57;;;;;;;10.70;10.00;;;2.50;99.90;;;;;;6097215;23;20444;-77
2021/01/20 00:23:23;;;;;;;11.00;10.30;;;2.50;99.90;;;;;;6098714;23;20884;-77
2021/01/20 00:25:49;;;;;;;11.03;10.23;;;2.50;99.90;;;;;;6097497;23;20426;-77
2021/01/20 00:28:16;;;;;;;10.97;10.27;;;2.60;99.90;;;;;;6098377;23;20426;-77
2021/01/20 00:30:42;;;;;;;11.00;10.20;;;2.60;99.90;;;;;;6099583;23;20388;-77
2021/01/20 00:33:09;;;;;;;11.20;10.50;;;2.60;99.90;;;;;;6098930;23;20398;-77
2021/01/20 00:35:35;;;;;;;11.13;10.33;;;2.60;99.90;;;;;;6096964;23;20419;-77
2021/01/20 00:38:02;;;;;;;11.40;10.53;;;2.70;99.90;;;;;;6097293;23;20774;-77
2021/01/20 00:40:28;;;;;;;10.93;10.23;;;2.70;99.90;;;;;;6121478;23;20433;-77
2021/01/20 00:42:54;;;;;;;10.67;10.00;;;2.70;99.90;;;;;;6097512;23;20474;-78
2021/01/20 00:45:21;;;;;;;10.80;10.10;;;2.70;99.90;;;;;;6122018;23;20435;-77
2021/01/20 00:47:48;;;;;;;10.90;10.20;;;2.80;99.90;;;;;;6097464;23;20473;-77
2021/01/20 00:50:15;;;;;;;11.03;10.33;;;2.80;99.90;;;;;;6098685;23;20402;-77
2021/01/20 00:52:42;;;;;;;11.40;10.50;;;2.80;99.90;;;;;;6097347;23;20424;-77
2021/01/20 00:55:12;;;;;;;11.10;10.40;;;2.80;99.90;;;;;;6097924;23;20423;-77
2021/01/20 00:57:38;;;;;;;10.50;9.90;;;2.80;99.90;;;;;;6121083;23;20437;-77
2021/01/20 01:00:06;;;;;;;11.00;10.30;;;2.70;99.90;;;;;;6096687;23;20476;-77
2021/01/20 01:02:40;;;;;;;10.53;9.83;;;2.70;99.90;;;;;;6121421;23;20421;-77
2021/01/20 01:05:08;;;;;;;10.67;9.97;;;2.80;99.90;;;;;;6121516;23;20483;-77
2021/01/20 01:07:36;;;;;;;11.10;10.40;;;2.80;99.90;;;;;;6121374;23;20438;-77
2021/01/20 01:10:02;;;;;;;10.90;10.27;;;2.80;99.90;;;;;;6096767;23;20433;-77
2021/01/20 01:12:55;;;;;;;11.33;10.63;;;2.80;99.90;;;;;;6099137;23;20534;-77
2021/01/20 01:15:22;;;;;;;11.07;10.27;;;2.90;99.90;;;;;;6098119;23;20426;-77
2021/01/20 01:17:49;;;;;;;11.33;10.60;;;3.00;99.90;;;;;;6097712;23;20442;-77
2021/01/20 01:20:15;;;;;;;11.10;10.40;;;2.90;99.90;;;;;;6097865;23;20452;-77
2021/01/20 01:22:44;;;;;;;11.00;10.30;;;3.00;99.90;;;;;;6097632;23;20417;-77
2021/01/20 01:25:13;;;;;;;11.10;10.30;;;3.00;99.90;;;;;;6096981;23;20418;-77
2021/01/20 01:27:45;;;;;;;10.83;10.13;;;3.00;99.90;;;;;;6122005;23;20443;-77
2021/01/20 01:30:13;;;;;;;11.43;10.60;;;2.90;99.90;;;;;;6096761;23;20506;-77
2021/01/20 01:32:42;;;;;;;10.97;10.27;;;2.90;99.90;;;;;;6098425;23;20397;-77
2021/01/20 01:35:13;;;;;;;10.77;10.17;;;3.00;99.90;;;;;;6098954;23;20427;-77
2021/01/20 01:37:44;;;;;;;10.60;10.00;;;3.00;99.90;;;;;;6096991;23;20546;-77
2021/01/20 01:40:11;;;;;;;11.60;10.80;;;3.00;99.90;;;;;;6098644;23;20398;-77
2021/01/20 01:42:57;;;;;;;11.10;10.40;;;3.00;99.90;;;;;;6098445;23;20408;-77
2021/01/20 01:45:25;;;;;;;11.23;10.43;;;3.00;99.90;;;;;;6120885;23;20429;-77
2021/01/20 01:47:51;;;;;;;10.80;10.20;;;3.00;99.90;;;;;;6097115;23;20441;-77
2021/01/20 01:50:18;;;;;;;11.37;10.60;;;3.00;99.90;;;;;;6096542;23;20451;-77
2021/01/20 01:52:45;;;;;;;11.60;10.80;;;2.90;99.90;;;;;;6097122;23;20417;-77
2021/01/20 01:55:38;;;;;;;11.70;10.90;;;2.90;99.90;;;;;;6098277;23;20963;-77
2021/01/20 01:58:27;;;;;;;11.70;11.00;;;2.90;99.90;;;;;;6097829;23;20976;-77
2021/01/20 02:01:02;;;;;;;10.87;10.17;;;2.90;99.90;;;;;;6096717;23;20445;-77
2021/01/20 02:03:39;;;;;;;11.17;10.47;;;2.90;99.90;;;;;;6096782;23;20413;-77
2021/01/20 02:06:05;;;;;;;11.70;10.87;;;2.80;99.90;;;;;;6097063;23;20421;-77
2021/01/20 02:08:33;;;;;;;12.07;11.17;;;2.80;99.90;;;;;;6096212;23;20439;-77
2021/01/20 02:11:17;;;;;;;11.83;11.03;;;2.80;99.90;;;;;;6097235;23;20498;-77
2021/01/20 02:13:51;;;;;;;11.93;11.03;;;2.80;99.90;;;;;;6121218;23;20424;-77
2021/01/20 02:16:54;;;;;;;12.00;11.20;;;2.70;99.90;;;;;;6097816;23;20423;-77
2021/01/20 02:19:49;;;;;;;12.00;11.20;;;2.70;99.90;;;;;;6095501;23;20448;-77
2021/01/20 02:22:22;;;;;;;12.17;11.37;;;2.70;99.90;;;;;;6120836;23;20435;-77
2021/01/20 02:24:58;;;;;;;12.30;11.30;;;2.70;99.90;;;;;;6098584;23;20423;-77
2021/01/20 02:27:50;;;;;;;12.30;11.43;;;2.70;99.90;;;;;;6120389;23;20485;-77
2021/01/20 02:30:23;;;;;;;11.70;10.90;;;2.70;99.90;;;;;;6096166;23;20806;-77
2021/01/20 02:32:56;;;;;;;11.60;10.80;;;2.80;99.90;;;;;;6121149;23;20418;-77
2021/01/20 02:36:03;;;;;;;11.63;10.83;;;2.70;99.90;;;;;;6075954;23;20418;-77
2021/01/20 02:38:40;;;;;;;11.83;11.03;;;2.70;99.90;;;;;;6095978;23;20438;-77
2021/01/20 02:41:09;;;;;;;11.50;10.80;;;2.70;99.90;;;;;;6096592;23;20921;-77
2021/01/20 02:43:59;;;;;;;12.00;11.20;;;2.70;99.90;;;;;;6096886;23;20445;-77
2021/01/20 02:46:44;;;;;;;11.47;10.77;;;2.70;99.90;;;;;;6096168;23;20425;-77
2021/01/20 02:49:20;;;;;;;11.40;10.70;;;2.70;99.90;;;;;;6096056;23;20435;-77
2021/01/20 02:51:54;;;;;;;11.40;10.60;;;2.70;99.90;;;;;;6096003;23;20891;-77
2021/01/20 02:54:39;;;;;;;11.30;10.53;;;2.60;99.90;;;;;;6097745;23;20393;-77
2021/01/20 02:57:40;;;;;;;11.63;10.83;;;2.60;99.90;;;;;;6097576;23;20435;-77
2021/01/20 03:00:13;;;;;;;11.50;10.80;;;2.60;99.90;;;;;;6095595;23;20613;-77
2021/01/20 03:02:49;;;;;;;11.50;10.80;;;2.60;99.90;;;;;;6096223;23;20414;-77
2021/01/20 03:05:17;;;;;;;11.20;10.50;;;2.60;99.90;;;;;;6097677;23;20419;-77
2021/01/20 03:07:44;;;;;;;11.13;10.53;;;2.50;99.90;;;;;;6097335;23;20429;-77
2021/01/20 03:10:11;;;;;;;10.90;10.10;;;2.50;99.90;;;;;;6097625;23;20433;-77
2021/01/20 03:12:38;;;;;;;11.50;10.80;;;2.50;99.90;;;;;;6097533;23;20845;-77
2021/01/20 03:15:12;;;;;;;11.27;10.57;;;2.50;99.90;;;;;;6097925;23;20436;-77
2021/01/20 03:17:38;;;;;;;11.00;10.30;;;2.50;99.90;;;;;;6097754;23;20783;-77
2021/01/20 03:20:07;;;;;;;11.50;10.70;;;2.50;99.90;;;;;;6097061;23;20458;-77
2021/01/20 03:22:33;;;;;;;11.70;11.00;;;2.50;99.90;;;;;;6097827;23;20434;-77
2021/01/20 03:24:59;;;;;;;11.10;10.40;;;2.40;99.90;;;;;;6097684;23;20778;-77
2021/01/20 03:27:25;;;;;;;11.27;10.47;;;2.40;99.90;;;;;;6097443;23;20472;-77
2021/01/20 03:29:52;;;;;;;10.90;10.30;;;2.30;99.90;;;;;;6097923;23;20888;-77
2021/01/20 03:32:18;;;;;;;10.80;10.10;;;2.20;99.90;;;;;;6097672;23;20403;-80
2021/01/20 03:34:44;;;;;;;10.97;10.27;;;2.20;99.90;;;;;;6096895;23;20434;-77
2021/01/20 03:37:11;;;;;;;10.73;10.07;;;2.10;99.90;;;;;;6096884;23;20423;-77
2021/01/20 03:39:37;;;;;;;11.33;10.63;;;2.10;99.90;;;;;;6096755;23;20426;-77
2021/01/20 03:42:04;;;;;;;11.27;10.57;;;2.10;99.90;;;;;;6097194;23;20442;-77
2021/01/20 03:44:30;;;;;;;11.07;10.37;;;2.00;99.90;;;;;;6097635;23;20439;-77
2021/01/20 03:46:57;;;;;;;10.90;10.20;;;2.00;99.90;;;;;;6097253;23;20423;-77
2021/01/20 03:49:23;;;;;;;11.20;10.47;;;2.10;99.90;;;;;;6095856;23;20406;-78
2021/01/20 03:51:49;;;;;;;11.27;10.50;;;2.10;99.90;;;;;;6096592;23;20397;-78
2021/01/20 03:54:16;;;;;;;11.10;10.40;;;2.10;99.90;;;;;;6095924;23;20431;-78
2021/01/20 03:56:42;;;;;;;11.10;10.30;;;2.10;99.90;;;;;;6096404;23;20441;-78
2021/01/20 03:59:09;;;;;;;10.97;10.27;;;2.10;99.90;;;;;;6096724;23;20436;-79
2021/01/20 04:01:35;;;;;;;11.60;10.80;;;2.10;99.90;;;;;;6096993;23;20530;-77
2021/01/20 04:04:01;;;;;;;11.50;10.70;;;2.10;99.90;;;;;;6096311;23;20429;-79
2021/01/20 04:06:38;;;;;;;11.53;10.70;;;2.00;99.90;;;;;;6119852;23;20422;-77
2021/01/20 04:09:05;;;;;;;12.00;11.20;;;2.10;99.90;;;;;;6119133;23;20469;-78
2021/01/20 04:11:32;;;;;;;11.50;10.70;;;2.10;99.90;;;;;;6119902;23;20418;-78
2021/01/20 04:13:59;;;;;;;12.20;11.30;;;2.20;99.90;;;;;;6094259;23;20865;-79
2021/01/20 04:16:26;;;;;;;11.50;10.73;;;2.20;99.90;;;;;;6096772;23;20421;-78
2021/01/20 04:18:52;;;;;;;11.60;10.80;;;2.30;99.90;;;;;;6095604;23;20489;-79
2021/01/20 04:21:18;;;;;;;11.67;10.93;;;2.30;99.90;;;;;;6094897;23;20430;-80
2021/01/20 04:23:44;;;;;;;12.23;11.43;;;2.30;99.90;;;;;;6097417;23;20400;-78
2021/01/20 04:26:11;;;;;;;11.80;11.00;;;2.40;99.90;;;;;;6091971;23;20425;-77
2021/01/20 04:28:38;;;;;;;11.13;10.43;;;2.40;99.90;;;;;;6091167;23;20450;-77
2021/01/20 04:31:05;;;;;;;11.67;10.97;;;2.40;99.90;;;;;;6091487;23;20466;-77
2021/01/20 04:33:32;;;;;;;11.73;10.93;;;2.40;99.90;;;;;;6091657;23;20634;-77
2021/01/20 04:35:58;;;;;;;11.97;11.13;;;2.40;99.90;;;;;;6093455;23;20634;-76
2021/01/20 04:38:25;;;;;;;11.67;10.77;;;2.50;99.90;;;;;;6091362;23;20434;-79
2021/01/20 04:40:52;;;;;;;11.50;10.77;;;2.50;99.90;;;;;;6091603;23;20446;-77
2021/01/20 04:43:19;;;;;;;11.97;11.17;;;2.50;99.90;;;;;;6118578;23;20444;-77
2021/01/20 04:45:46;;;;;;;11.27;10.53;;;2.60;99.90;;;;;;6098716;23;20399;-78
2021/01/20 04:48:15;;;;;;;11.50;10.70;;;2.60;99.90;;;;;;6098532;23;20438;-77
2021/01/20 04:50:43;;;;;;;11.57;10.67;;;2.60;99.90;;;;;;6097691;23;20423;-77
2021/01/20 04:53:10;;;;;;;11.60;10.80;;;2.60;99.90;;;;;;6097383;23;20423;-77
2021/01/20 04:55:39;;;;;;;11.17;10.37;;;2.60;99.90;;;;;;6097204;23;20421;-77
2021/01/20 04:58:06;;;;;;;11.50;10.80;;;2.70;99.90;;;;;;6121248;23;20463;-77
2021/01/20 05:00:32;;;;;;;12.57;11.67;;;2.70;99.90;;;;;;6098159;23;20391;-77
2021/01/20 05:03:03;;;;;;;12.50;11.70;;;2.70;99.90;;;;;;6098930;23;20395;-77
2021/01/20 05:05:29;;;;;;;12.43;11.63;;;2.70;99.90;;;;;;6097567;23;20421;-77
2021/01/20 05:07:56;;;;;;;11.90;11.10;;;2.60;99.90;;;;;;6097164;23;20439;-77
2021/01/20 05:10:22;;;;;;;12.20;11.30;;;2.60;99.90;;;;;;6096851;23;20473;-77
2021/01/20 05:12:48;;;;;;;11.93;11.13;;;2.60;99.90;;;;;;6097405;23;20418;-77
2021/01/20 05:15:16;;;;;;;12.03;11.13;;;2.60;99.90;;;;;;6097594;23;20434;-77
2021/01/20 05:17:57;;;;;;;12.33;11.47;;;2.60;99.90;;;;;;6096861;23;20817;-78
2021/01/20 05:20:32;;;;;;;12.07;11.17;;;2.60;99.90;;;;;;6098551;23;20776;-78
2021/01/20 05:22:59;;;;;;;12.73;11.67;;;2.70;99.90;;;;;;6097021;23;20414;-77
2021/01/20 05:25:29;;;;;;;11.90;11.10;;;2.70;99.90;;;;;;6098447;23;20452;-77
2021/01/20 05:27:56;;;;;;;12.30;11.30;;;2.70;99.90;;;;;;6098313;23;20445;-77
2021/01/20 05:30:23;;;;;;;12.97;12.07;;;2.70;99.90;;;;;;6121067;23;20411;-77
2021/01/20 05:32:57;;;;;;;12.43;11.43;;;2.80;99.90;;;;;;6099162;23;20421;-78
2021/01/20 05:35:24;;;;;;;11.90;11.10;;;2.80;99.90;;;;;;6097436;23;20422;-77
2021/01/20 05:37:51;;;;;;;12.07;11.17;;;2.80;99.90;;;;;;6097185;23;20442;-78
2021/01/20 05:40:20;;;;;;;12.53;11.63;;;2.90;99.90;;;;;;6097363;23;20415;-77
2021/01/20 05:42:49;;;;;;;12.57;11.63;;;2.90;99.90;;;;;;6099010;23;20390;-77
2021/01/20 05:45:17;;;;;;;13.60;12.70;;;2.90;99.90;;;;;;6097304;23;20428;-78
2021/01/20 05:48:07;;;;;;;13.37;12.47;;;2.90;99.90;;;;;;6099331;23;20410;-77
2021/01/20 05:50:36;;;;;;;13.33;12.23;;;3.00;99.90;;;;;;6099555;23;20727;-77
2021/01/20 05:53:08;;;;;;;13.87;12.87;;;3.00;99.90;;;;;;6096990;23;20426;-78
2021/01/20 05:55:36;;;;;;;13.00;12.10;;;3.10;99.90;;;;;;6097449;23;20902;-77
2021/01/20 05:58:02;;;;;;;12.70;11.73;;;3.00;99.90;;;;;;6097439;23;20434;-77
2021/01/20 06:00:29;;;;;;;12.40;11.37;;;3.10;99.90;;;;;;6098703;23;20395;-77
2021/01/20 06:02:57;;;;;;;11.80;10.90;;;3.20;99.90;;;;;;6098868;23;20396;-78
2021/01/20 06:05:24;;;;;;;12.10;11.20;;;3.20;99.90;;;;;;6097507;23;20449;-77
2021/01/20 06:07:51;;;;;;;11.93;11.13;;;3.30;99.90;;;;;;6097086;23;20494;-78
2021/01/20 06:10:19;;;;;;;11.97;11.17;;;3.40;99.90;;;;;;6098372;23;20465;-77
2021/01/20 06:12:46;;;;;;;12.33;11.30;;;3.40;99.90;;;;;;6097062;23;20443;-78
2021/01/20 06:15:13;;;;;;;11.83;11.00;;;3.50;99.90;;;;;;6098483;23;20952;-77
2021/01/20 06:17:41;;;;;;;12.23;11.33;;;3.50;99.90;;;;;;6097868;23;20941;-77
2021/01/20 06:20:09;;;;;;;11.97;11.17;;;3.50;99.90;;;;;;6096382;23;20421;-77
2021/01/20 06:22:47;;;;;;;12.10;11.30;;;3.60;99.90;;;;;;6098283;23;20433;-78
2021/01/20 06:25:23;;;;;;;11.57;10.67;;;3.60;99.90;;;;;;6120758;23;20493;-77
2021/01/20 06:27:54;;;;;;;12.20;11.40;;;3.60;99.90;;;;;;6097013;23;20524;-78
2021/01/20 06:30:34;;;;;;;13.20;12.20;;;3.70;99.90;;;;;;6098240;23;20423;-77
2021/01/20 06:33:06;;;;;;;12.13;11.23;;;3.60;99.90;;;;;;6097073;23;20409;-78
2021/01/20 06:35:42;;;;;;;12.07;11.20;;;3.70;99.90;;;;;;6121238;23;20503;-77
2021/01/20 06:38:33;;;;;;;11.67;10.77;;;3.60;99.90;;;;;;6096230;23;20476;-77
2021/01/20 06:41:02;;;;;;;11.83;10.83;;;3.60;99.90;;;;;;6098261;23;20423;-78
2021/01/20 06:43:37;;;;;;;11.90;11.10;;;3.70;99.90;;;;;;6098308;23;20388;-78
2021/01/20 06:46:18;;;;;;;12.47;11.47;;;3.70;99.90;;;;;;6096864;23;20420;-77
2021/01/20 06:49:10;;;;;;;11.93;11.03;;;3.70;99.90;;;;;;6096038;23;20443;-77
2021/01/20 06:51:38;;;;;;;13.17;12.07;;;3.80;99.90;;;;;;6096973;23;20461;-77
2021/01/20 06:54:12;;;;;;;12.93;11.87;;;3.70;99.90;;;;;;6098582;23;20397;-77
2021/01/20 06:56:42;;;;;;;12.30;11.40;;;3.80;99.90;;;;;;6097967;23;20480;-77
2021/01/20 06:59:22;;;;;;;13.80;12.63;;;3.80;99.90;;;;;;6096315;23;20465;-77
2021/01/20 07:02:08;;;;;;;12.97;11.73;;;3.80;99.90;;;;;;6096395;23;20433;-77
2021/01/20 07:04:54;;;;;;;12.10;11.20;;;3.90;99.90;;;;;;6095967;23;20406;-78
2021/01/20 07:07:52;;;;;;;12.80;11.80;;;3.90;99.90;;;;;;6097520;23;20414;-77
2021/01/20 07:10:20;;;;;;;13.10;12.20;;;3.90;99.90;;;;;;6097444;23;20392;-77
2021/01/20 07:13:17;;;;;;;12.93;12.03;;;4.00;99.90;;;;;;6096196;23;20755;-77
2021/01/20 07:15:45;;;;;;;12.30;11.50;;;4.00;99.90;;;;;;6056178;23;20421;-77
2021/01/20 07:18:13;;;;;;;12.53;11.57;;;4.10;99.90;;;;;;6096129;23;20441;-77
2021/01/20 07:20:41;;;;;;;13.07;11.97;;;4.10;99.90;;;;;;6096166;23;20416;-77
2021/01/20 07:23:07;;;;;;;12.00;10.97;;;4.10;99.90;;;;;;6096081;23;20407;-77
2021/01/20 07:25:34;;;;;;;11.90;11.10;;;4.10;99.90;;;;;;6097996;23;20447;-78
2021/01/20 07:28:00;;;;;;;11.93;11.13;;;4.10;99.90;;;;;;6097402;23;20438;-77
2021/01/20 07:30:29;;;;;;;12.77;11.87;;;4.10;99.90;;;;;;6097339;23;20398;-77
2021/01/20 07:32:55;;;;;;;12.07;11.27;;;4.20;99.90;;;;;;6097878;23;20465;-78
2021/01/20 07:35:23;;;;;;;13.33;12.33;;;4.20;99.90;;;;;;6097447;23;20402;-78
2021/01/20 07:37:59;;;;;;;12.70;11.70;;;4.20;99.90;;;;;;6097831;23;20414;-78
2021/01/20 07:40:29;;;;;;;12.80;11.70;;;4.20;99.90;;;;;;6096494;23;20425;-77
2021/01/20 07:42:55;;;;;;;12.60;11.60;;;4.20;99.90;;;;;;6096133;23;20416;-77
2021/01/20 07:45:34;;;;;;;12.10;11.23;;;4.20;99.90;;;;;;6121220;23;20445;-77
2021/01/20 07:48:01;;;;;;;12.50;11.60;;;4.20;99.90;;;;;;6096141;23;20436;-77
2021/01/20 07:50:43;;;;;;;12.60;11.70;;;4.20;99.90;;;;;;6096731;23;20426;-78
2021/01/20 07:53:17;;;;;;;12.20;11.30;;;4.20;99.90;;;;;;6095782;23;20460;-77
2021/01/20 07:55:45;;;;;;;11.37;10.63;;;4.20;99.90;;;;;;6097978;23;20404;-78
2021/01/20 07:58:13;;;;;;;11.90;11.00;;;4.20;99.90;;;;;;6098182;23;20414;-76
2021/01/20 08:00:45;;;;;;;12.20;11.40;;;4.30;99.90;;;;;;6098082;23;20394;-77
2021/01/20 08:03:11;;;;;;;12.30;11.37;;;4.30;99.90;;;;;;6098340;23;20394;-77
2021/01/20 08:05:38;;;;;;;12.63;11.73;;;4.30;99.90;;;;;;6097884;23;20475;-77
2021/01/20 08:08:12;;;;;;;12.07;11.20;;;4.30;99.90;;;;;;6120907;23;20502;-77
2021/01/20 08:10:39;;;;;;;12.90;11.63;;;4.40;99.90;;;;;;6096817;23;20877;-77
2021/01/20 08:13:08;;;;;;;11.93;10.97;;;4.40;99.90;;;;;;6120898;23;20799;-77
2021/01/20 08:15:40;;;;;;;12.53;11.63;;;4.40;99.90;;;;;;6096479;23;20909;-77
2021/01/20 08:18:08;;;;;;;12.50;11.60;;;4.50;99.90;;;;;;6122822;23;20429;-77
2021/01/20 08:20:35;;;;;;;12.47;11.40;;;4.60;99.90;;;;;;6100345;23;20394;-77
2021/01/20 08:23:05;;;;;;;11.67;10.87;;;4.60;99.90;;;;;;6098556;23;20477;-77
2021/01/20 08:25:31;;;;;;;12.20;11.30;;;4.70;99.90;;;;;;6099266;23;20409;-78
2021/01/20 08:28:12;;;;;;;11.87;11.07;;;4.70;99.90;;;;;;6100087;23;20917;-78
2021/01/20 08:30:38;;;;;;;11.70;10.90;;;4.80;99.90;;;;;;6100515;23;20402;-78
2021/01/20 08:33:05;;;;;;;11.97;11.13;;;4.80;99.90;;;;;;6101012;23;20166;-79
2021/01/20 08:35:34;;;;;;;12.40;11.50;;;4.80;99.90;;;;;;6123878;23;20437;-79
2021/01/20 08:38:01;;;;;;;12.70;11.80;;;4.90;99.90;;;;;;6100547;23;20414;-78
2021/01/20 08:40:28;;;;;;;11.50;10.80;;;5.00;99.90;;;;;;6100296;23;20944;-78
2021/01/20 08:42:54;;;;;;;12.70;11.80;;;5.00;99.90;;;;;;6098781;23;20557;-78
2021/01/20 08:45:32;;;;;;;12.80;11.83;;;5.10;99.90;;;;;;6099959;23;20421;-78
2021/01/20 08:48:00;;;;;;;12.83;12.00;;;5.10;99.90;;;;;;6100285;23;20613;-78
2021/01/20 08:50:42;;;;;;;12.27;11.47;;;5.10;99.90;;;;;;6122593;23;20174;-79
2021/01/20 08:53:09;;;;;;;12.33;11.43;;;5.20;99.90;;;;;;6122177;23;20444;-76
2021/01/20 08:55:38;;;;;;;12.77;11.87;;;5.20;99.90;;;;;;6098565;23;20696;-76
2021/01/20 08:58:31;;;;;;;13.30;12.23;;;5.20;99.90;;;;;;6100516;23;20414;-76
2021/01/20 09:01:00;;;;;;;12.53;11.53;;;5.20;99.90;;;;;;6098858;23;20190;-76
2021/01/20 09:03:27;;;;;;;11.93;10.93;;;5.30;99.90;;;;;;6123474;23;20185;-76
2021/01/20 09:05:56;;;;;;;11.27;10.47;;;5.30;99.90;;;;;;6098341;23;20684;-76
2021/01/20 09:08:24;;;;;;;12.80;11.90;;;5.40;99.90;;;;;;6122722;23;20677;-76
2021/01/20 09:10:51;;;;;;;12.10;11.23;;;5.40;99.90;;;;;;6122105;23;20196;-76
2021/01/20 09:13:17;;;;;;;11.80;11.10;;;5.50;99.90;;;;;;6098265;23;20257;-76
2021/01/20 09:15:45;;;;;;;12.73;11.73;;;5.50;99.90;;;;;;6099786;23;20194;-76
2021/01/20 09:18:12;;;;;;;12.20;11.37;;;5.50;99.90;;;;;;6100589;23;20213;-75
2021/01/20 09:20:38;;;;;;;11.83;11.03;;;5.50;99.90;;;;;;6099721;23;20230;-76
2021/01/20 09:23:06;;;;;;;11.50;10.70;;;5.60;99.90;;;;;;6099679;23;20170;-76
2021/01/20 09:25:33;;;;;;;12.03;11.23;;;5.60;99.90;;;;;;6098001;23;20182;-76
2021/01/20 09:28:00;;;;;;;12.67;11.70;;;5.70;99.90;;;;;;6097665;23;20261;-76
2021/01/20 09:30:26;;;;;;;12.63;11.73;;;5.70;99.90;;;;;;6097477;23;20170;-76
2021/01/20 09:32:53;;;;;;;12.43;11.63;;;5.70;99.90;;;;;;6122975;23;20170;-76
2021/01/20 09:35:20;;;;;;;12.13;11.23;;;5.80;99.90;;;;;;6099645;23;20493;-76
2021/01/20 09:37:48;;;;;;;12.27;11.23;;;5.80;99.90;;;;;;6098190;23;20193;-76
2021/01/20 09:40:16;;;;;;;11.97;11.17;;;5.80;99.90;;;;;;6099417;23;20514;-76
2021/01/20 09:42:44;;;;;;;12.20;11.30;;;5.80;99.90;;;;;;6121962;23;20201;-76
2021/01/20 09:45:12;;;;;;;12.00;11.10;;;5.80;99.90;;;;;;6097671;23;20174;-76
2021/01/20 09:47:39;;;;;;;12.17;11.17;;;5.90;99.90;;;;;;6098730;23;20190;-76
2021/01/20 09:50:07;;;;;;;12.70;11.70;;;5.90;99.90;;;;;;6098822;23;20177;-76
2021/01/20 09:52:34;;;;;;;11.13;10.33;;;6.00;99.90;;;;;;6122678;23;20180;-76
2021/01/20 09:55:01;;;;;;;12.07;11.17;;;6.10;99.90;;;;;;6097419;23;20515;-76
2021/01/20 09:57:28;;;;;;;11.43;10.60;;;6.10;99.90;;;;;;6098994;23;20186;-76
2021/01/20 09:59:54;;;;;;;11.13;10.40;;;6.20;99.90;;;;;;6097330;23;20178;-76
2021/01/20 10:02:20;;;;;;;11.43;10.73;;;6.30;99.90;;;;;;6098204;23;20197;-76
2021/01/20 10:04:47;;;;;;;12.03;11.10;;;6.30;99.90;;;;;;6098015;23;20185;-79
2021/01/20 10:07:14;;;;;;;11.50;10.70;;;6.40;99.90;;;;;;6097455;23;20245;-78
2021/01/20 10:09:41;;;;;;;11.43;10.63;;;6.50;99.90;;;;;;6099199;23;20171;-78
2021/01/20 10:12:08;;;;;;;11.57;10.77;;;6.60;99.90;;;;;;6098785;23;20175;-79
2021/01/20 10:14:36;;;;;;;11.27;10.50;;;6.60;99.90;;;;;;6123233;23;20174;-78
2021/01/20 10:17:02;;;;;;;11.60;10.70;;;6.70;99.90;;;;;;6122500;23;20199;-79
2021/01/20 10:19:29;;;;;;;10.83;10.03;;;6.80;99.90;;;;;;6122615;23;20202;-79
2021/01/20 10:21:55;;;;;;;11.00;10.20;;;6.90;99.90;;;;;;6097991;23;20194;-78
2021/01/20 10:24:21;;;;;;;11.13;10.33;;;7.00;99.90;;;;;;6098152;23;20175;-79
2021/01/20 10:26:48;;;;;;;11.50;10.70;;;7.10;99.90;;;;;;6099617;23;20166;-78
2021/01/20 10:29:14;;;;;;;11.80;10.93;;;7.10;99.90;;;;;;6099194;23;20160;-79
2021/01/20 10:31:42;;;;;;;11.30;10.50;;;7.30;99.90;;;;;;6099695;23;20223;-78
2021/01/20 10:34:10;;;;;;;12.20;11.20;;;7.30;99.90;;;;;;6100671;23;20180;-79
2021/01/20 10:36:37;;;;;;;11.07;10.27;;;7.40;99.90;;;;;;6099859;23;20174;-78
2021/01/20 10:39:04;;;;;;;11.27;10.37;;;7.60;99.90;;;;;;6097672;23;20195;-78
2021/01/20 10:41:31;;;;;;;11.50;10.60;;;7.70;99.90;;;;;;6097800;23;20191;-78
2021/01/20 10:43:57;;;;;;;11.47;10.60;;;7.70;99.90;;;;;;6098410;23;20517;-78
2021/01/20 10:46:25;;;;;;;11.67;10.77;;;7.80;99.90;;;;;;6099818;23;20176;-78
2021/01/20 10:48:53;;;;;;;12.07;11.20;;;7.90;99.90;;;;;;6122659;23;20651;-79
2021/01/20 10:51:20;;;;;;;12.67;11.60;;;8.00;99.90;;;;;;6099963;23;20173;-79
2021/01/20 10:53:46;;;;;;;12.47;11.47;;;8.00;99.90;;;;;;6122308;23;20177;-79
2021/01/20 10:56:13;;;;;;;13.00;12.03;;;8.10;99.90;;;;;;6099340;23;20702;-79
2021/01/20 10:58:39;;;;;;;12.23;11.33;;;8.20;99.90;;;;;;6096937;23;20265;-79
2021/01/20 11:01:05;;;;;;;12.43;11.43;;;8.40;99.90;;;;;;6099008;23;20229;-76
2021/01/20 11:03:32;;;;;;;12.03;11.17;;;8.30;99.90;;;;;;6097655;23;20177;-76
2021/01/20 11:05:59;;;;;;;12.70;11.80;;;8.40;99.90;;;;;;6099231;23;20192;-76
2021/01/20 11:08:26;;;;;;;13.27;11.73;;;8.40;99.90;;;;;;6097764;23;20197;-76
2021/01/20 11:10:52;;;;;;;12.20;11.30;;;8.50;99.90;;;;;;6099303;23;20255;-76
2021/01/20 11:13:19;;;;;;;11.87;10.97;;;8.50;99.90;;;;;;6097770;23;20240;-76
2021/01/20 11:15:45;;;;;;;12.03;11.13;;;8.50;99.90;;;;;;6097933;23;20205;-76
2021/01/20 11:18:13;;;;;;;12.70;11.70;;;8.60;99.90;;;;;;6097502;23;20280;-75
2021/01/20 11:20:39;;;;;;;11.63;10.77;;;8.60;99.90;;;;;;6097745;23;20205;-76
2021/01/20 11:23:07;;;;;;;12.33;11.43;;;8.50;99.90;;;;;;6098780;23;20191;-76
2021/01/20 11:25:33;;;;;;;11.60;10.80;;;8.50;99.90;;;;;;6099594;23;20172;-76
2021/01/20 11:28:00;;;;;;;10.97;10.27;;;8.50;99.90;;;;;;6098670;23;20209;-76
2021/01/20 11:30:27;;;;;;;12.00;11.00;;;8.50;99.90;;;;;;6098945;23;20198;-76
2021/01/20 11:32:54;;;;;;;11.93;11.17;;;8.50;99.90;;;;;;6096869;23;20173;-76
2021/01/20 11:35:21;;;;;;;12.17;11.27;;;8.50;99.90;;;;;;6098757;23;20166;-76
2021/01/20 11:37:47;;;;;;;12.23;11.43;;;8.50;99.90;;;;;;6098395;23;20185;-76
2021/01/20 11:40:15;;;;;;;12.33;11.53;;;8.50;99.90;;;;;;6098368;23;20170;-76
2021/01/20 11:42:42;;;;;;;12.40;11.50;;;8.50;99.90;;;;;;6120384;23;20193;-76
2021/01/20 11:45:09;;;;;;;11.53;10.67;;;8.60;99.90;;;;;;6098191;23;20176;-76
2021/01/20 11:47:36;;;;;;;12.27;11.30;;;8.60;99.90;;;;;;6097656;23;20188;-76
2021/01/20 11:50:05;;;;;;;12.70;11.70;;;8.60;99.90;;;;;;6097998;23;20183;-77
2021/01/20 11:52:31;;;;;;;12.43;11.63;;;8.60;99.90;;;;;;6098084;23;20555;-76
2021/01/20 11:54:58;;;;;;;12.70;11.80;;;8.50;99.90;;;;;;6096154;23;20186;-76
2021/01/20 11:57:25;;;;;;;13.60;12.60;;;8.40;99.90;;;;;;6098099;23;20201;-76
2021/01/20 11:59:51;;;;;;;12.97;12.00;;;8.30;99.90;;;;;;6120620;23;20629;-76
2021/01/20 12:02:17;;;;;;;14.13;13.00;;;8.30;99.90;;;;;;6096704;23;20245;-76
2021/01/20 12:04:44;;;;;;;12.97;11.97;;;8.20;99.90;;;;;;6096140;23;20187;-76
2021/01/20 12:07:10;;;;;;;12.93;12.03;;;8.20;99.90;;;;;;6096177;23;20194;-76
2021/01/20 12:09:36;;;;;;;12.97;11.97;;;8.30;99.90;;;;;;6096911;23;20197;-77
2021/01/20 12:12:03;;;;;;;13.40;12.40;;;8.30;99.90;;;;;;6096310;23;20179;-76
2021/01/20 12:14:30;;;;;;;13.00;11.77;;;8.30;99.90;;;;;;6098270;23;20564;-76
2021/01/20 12:17:03;;;;;;;12.70;11.70;;;8.40;99.90;;;;;;6095856;23;20198;-76
2021/01/20 12:19:29;;;;;;;12.20;11.40;;;8.40;99.90;;;;;;6096463;23;20235;-76
2021/01/20 12:21:55;;;;;;;12.33;11.33;;;8.40;99.90;;;;;;6095713;23;20190;-76
2021/01/20 12:24:21;;;;;;;12.27;11.37;;;8.40;99.90;;;;;;6097696;23;20292;-77
2021/01/20 12:26:48;;;;;;;13.00;12.00;;;8.40;99.90;;;;;;6095352;23;20180;-76
2021/01/20 12:29:14;;;;;;;12.10;11.10;;;8.40;99.90;;;;;;6095463;23;20490;-76
2021/01/20 12:31:41;;;;;;;11.70;10.87;;;8.40;99.90;;;;;;6097948;23;20217;-76
2021/01/20 12:34:07;;;;;;;12.03;11.13;;;8.40;99.90;;;;;;6096575;23;20652;-76
2021/01/20 12:36:34;;;;;;;12.30;11.30;;;8.40;99.90;;;;;;6096139;23;20178;-76
2021/01/20 12:39:00;;;;;;;12.60;11.70;;;8.40;99.90;;;;;;6097356;23;20186;-76
2021/01/20 12:41:27;;;;;;;11.90;11.10;;;8.30;99.90;;;;;;6097479;23;20193;-76
2021/01/20 12:43:53;;;;;;;13.13;12.23;;;8.30;99.90;;;;;;6097903;23;20170;-76
2021/01/20 12:46:19;;;;;;;12.80;11.80;;;8.30;99.90;;;;;;6095997;23;20180;-76
2021/01/20 12:48:46;;;;;;;12.63;11.73;;;8.20;99.90;;;;;;6097165;23;20582;-77
2021/01/20 12:51:12;;;;;;;13.07;12.07;;;8.30;99.90;;;;;;6095738;23;20182;-76